Terminal Aerodrome Forecast
Issued by NWS Spokane, WA

Home | Current Version | Previous Version | Text Only | Print | Product List | Glossary On
Versions: 1 2 3 4 5 6 7 8 9 10 11 12 13 14 15 16 17 18 19 20 21 22 23 24
000
FTUS46 KOTX 170525
TAFGEG
TAF
KGEG 170525Z 1706/1806 21008KT P6SM FEW100
     FM170900 16006KT P6SM SKC
     FM171800 23009KT P6SM SKC
     FM180200 21004KT P6SM SCT200=

USA.gov is the U.S. government's official web portal to all federal, state and local government web resources and services.